sensor_id;sensor_type;location;lat;lon;timestamp;P1;durP1;ratioP1;P2;durP2;ratioP2
29314;SDS011;16320;53.954;9.506;2022-09-13T00:01:16;17.85;;;11.20;;
29314;SDS011;16320;53.954;9.506;2022-09-13T00:04:21;24.70;;;12.48;;
29314;SDS011;16320;53.954;9.506;2022-09-13T00:07:26;22.20;;;12.48;;
29314;SDS011;16320;53.954;9.506;2022-09-13T00:10:32;21.80;;;12.43;;
29314;SDS011;16320;53.954;9.506;2022-09-13T00:13:38;25.65;;;15.68;;
29314;SDS011;16320;53.954;9.506;2022-09-13T00:16:43;28.05;;;15.77;;
29314;SDS011;16320;53.954;9.506;2022-09-13T00:19:47;29.08;;;16.15;;
29314;SDS011;16320;53.954;9.506;2022-09-13T00:22:51;29.75;;;16.77;;
29314;SDS011;16320;53.954;9.506;2022-09-13T00:26:03;27.17;;;16.70;;
29314;SDS011;16320;53.954;9.506;2022-09-13T00:29:11;34.92;;;18.27;;
29314;SDS011;16320;53.954;9.506;2022-09-13T00:32:15;35.72;;;18.98;;
29314;SDS011;16320;53.954;9.506;2022-09-13T00:35:19;39.35;;;20.15;;
29314;SDS011;16320;53.954;9.506;2022-09-13T00:38:24;44.53;;;20.63;;
29314;SDS011;16320;53.954;9.506;2022-09-13T00:41:28;43.92;;;20.48;;
29314;SDS011;16320;53.954;9.506;2022-09-13T00:44:54;53.72;;;20.48;;
29314;SDS011;16320;53.954;9.506;2022-09-13T00:48:04;47.75;;;22.30;;
29314;SDS011;16320;53.954;9.506;2022-09-13T00:51:10;52.05;;;22.85;;
29314;SDS011;16320;53.954;9.506;2022-09-13T00:54:16;55.13;;;23.08;;
29314;SDS011;16320;53.954;9.506;2022-09-13T00:57:25;50.30;;;22.33;;
29314;SDS011;16320;53.954;9.506;2022-09-13T01:00:31;49.08;;;22.75;;
29314;SDS011;16320;53.954;9.506;2022-09-13T01:03:36;51.53;;;23.95;;
29314;SDS011;16320;53.954;9.506;2022-09-13T01:06:42;47.70;;;23.23;;
29314;SDS011;16320;53.954;9.506;2022-09-13T01:09:47;54.72;;;24.63;;
29314;SDS011;16320;53.954;9.506;2022-09-13T01:13:03;56.22;;;25.45;;
29314;SDS011;16320;53.954;9.506;2022-09-13T01:16:17;59.35;;;24.15;;
29314;SDS011;16320;53.954;9.506;2022-09-13T01:19:21;55.67;;;25.25;;
29314;SDS011;16320;53.954;9.506;2022-09-13T01:26:41;59.10;;;25.75;;
29314;SDS011;16320;53.954;9.506;2022-09-13T01:30:04;66.88;;;26.17;;
29314;SDS011;16320;53.954;9.506;2022-09-13T01:33:22;67.13;;;27.08;;
29314;SDS011;16320;53.954;9.506;2022-09-13T01:44:02;72.45;;;27.48;;
29314;SDS011;16320;53.954;9.506;2022-09-13T01:47:29;73.05;;;27.55;;
29314;SDS011;16320;53.954;9.506;2022-09-13T01:50:42;90.20;;;28.33;;
29314;SDS011;16320;53.954;9.506;2022-09-13T01:54:04;75.32;;;28.17;;
29314;SDS011;16320;53.954;9.506;2022-09-13T01:57:21;81.45;;;28.67;;
29314;SDS011;16320;53.954;9.506;2022-09-13T02:00:34;76.47;;;29.08;;
29314;SDS011;16320;53.954;9.506;2022-09-13T02:03:59;92.18;;;30.98;;
29314;SDS011;16320;53.954;9.506;2022-09-13T02:07:09;92.90;;;29.48;;
29314;SDS011;16320;53.954;9.506;2022-09-13T02:10:25;96.15;;;30.65;;
29314;SDS011;16320;53.954;9.506;2022-09-13T02:13:46;105.13;;;32.33;;
29314;SDS011;16320;53.954;9.506;2022-09-13T02:20:25;98.93;;;31.75;;
29314;SDS011;16320;53.954;9.506;2022-09-13T02:23:40;101.37;;;34.73;;
29314;SDS011;16320;53.954;9.506;2022-09-13T02:26:52;127.07;;;34.10;;
29314;SDS011;16320;53.954;9.506;2022-09-13T02:30:04;110.03;;;35.13;;
29314;SDS011;16320;53.954;9.506;2022-09-13T02:36:22;102.93;;;35.22;;
29314;SDS011;16320;53.954;9.506;2022-09-13T02:39:32;116.15;;;35.67;;
29314;SDS011;16320;53.954;9.506;2022-09-13T02:42:46;107.40;;;35.75;;
29314;SDS011;16320;53.954;9.506;2022-09-13T02:46:13;121.63;;;35.78;;
29314;SDS011;16320;53.954;9.506;2022-09-13T02:56:46;130.75;;;38.20;;
29314;SDS011;16320;53.954;9.506;2022-09-13T03:00:18;141.07;;;40.47;;
29314;SDS011;16320;53.954;9.506;2022-09-13T03:03:23;162.20;;;40.30;;
29314;SDS011;16320;53.954;9.506;2022-09-13T03:06:28;191.40;;;45.78;;
29314;SDS011;16320;53.954;9.506;2022-09-13T03:09:33;202.35;;;45.63;;
29314;SDS011;16320;53.954;9.506;2022-09-13T03:16:20;249.55;;;46.83;;
29314;SDS011;16320;53.954;9.506;2022-09-13T03:19:46;244.70;;;49.05;;
29314;SDS011;16320;53.954;9.506;2022-09-13T03:30:41;284.05;;;53.70;;
29314;SDS011;16320;53.954;9.506;2022-09-13T03:34:03;308.42;;;58.28;;
29314;SDS011;16320;53.954;9.506;2022-09-13T03:37:19;307.83;;;60.28;;
29314;SDS011;16320;53.954;9.506;2022-09-13T03:41:13;314.67;;;59.47;;
29314;SDS011;16320;53.954;9.506;2022-09-13T03:44:25;369.95;;;61.85;;
29314;SDS011;16320;53.954;9.506;2022-09-13T03:47:32;372.80;;;67.45;;
29314;SDS011;16320;53.954;9.506;2022-09-13T03:50:39;386.05;;;68.80;;
29314;SDS011;16320;53.954;9.506;2022-09-13T03:53:47;394.83;;;69.50;;
29314;SDS011;16320;53.954;9.506;2022-09-13T04:00:13;257.23;;;66.25;;
29314;SDS011;16320;53.954;9.506;2022-09-13T04:03:18;236.50;;;68.28;;
29314;SDS011;16320;53.954;9.506;2022-09-13T04:06:23;233.98;;;66.13;;
29314;SDS011;16320;53.954;9.506;2022-09-13T04:09:29;216.00;;;63.80;;
29314;SDS011;16320;53.954;9.506;2022-09-13T04:12:34;224.95;;;63.47;;
29314;SDS011;16320;53.954;9.506;2022-09-13T04:15:38;258.48;;;64.97;;
29314;SDS011;16320;53.954;9.506;2022-09-13T04:18:43;244.05;;;63.97;;
29314;SDS011;16320;53.954;9.506;2022-09-13T04:21:47;294.67;;;62.97;;
29314;SDS011;16320;53.954;9.506;2022-09-13T04:24:56;219.65;;;59.10;;
29314;SDS011;16320;53.954;9.506;2022-09-13T04:28:04;309.90;;;63.08;;
29314;SDS011;16320;53.954;9.506;2022-09-13T04:31:09;234.38;;;57.25;;
29314;SDS011;16320;53.954;9.506;2022-09-13T04:34:14;237.15;;;57.90;;
29314;SDS011;16320;53.954;9.506;2022-09-13T04:37:21;229.95;;;57.60;;
29314;SDS011;16320;53.954;9.506;2022-09-13T04:40:26;194.27;;;52.42;;
29314;SDS011;16320;53.954;9.506;2022-09-13T04:43:30;201.90;;;51.35;;
29314;SDS011;16320;53.954;9.506;2022-09-13T04:46:34;159.75;;;45.45;;
29314;SDS011;16320;53.954;9.506;2022-09-13T04:49:39;141.07;;;40.80;;
29314;SDS011;16320;53.954;9.506;2022-09-13T04:52:43;166.40;;;40.03;;
29314;SDS011;16320;53.954;9.506;2022-09-13T04:55:47;137.13;;;36.60;;
29314;SDS011;16320;53.954;9.506;2022-09-13T04:58:52;142.18;;;34.53;;
29314;SDS011;16320;53.954;9.506;2022-09-13T05:01:58;111.72;;;31.77;;
29314;SDS011;16320;53.954;9.506;2022-09-13T05:05:03;113.18;;;28.60;;
29314;SDS011;16320;53.954;9.506;2022-09-13T05:08:08;89.38;;;26.02;;
29314;SDS011;16320;53.954;9.506;2022-09-13T05:11:13;77.32;;;22.48;;
29314;SDS011;16320;53.954;9.506;2022-09-13T05:14:18;65.43;;;19.67;;
29314;SDS011;16320;53.954;9.506;2022-09-13T05:17:22;68.45;;;18.92;;
29314;SDS011;16320;53.954;9.506;2022-09-13T05:20:26;64.28;;;17.17;;
29314;SDS011;16320;53.954;9.506;2022-09-13T05:23:31;61.92;;;15.98;;
29314;SDS011;16320;53.954;9.506;2022-09-13T05:26:35;53.67;;;12.73;;
29314;SDS011;16320;53.954;9.506;2022-09-13T05:29:40;35.25;;;9.93;;
29314;SDS011;16320;53.954;9.506;2022-09-13T05:32:44;58.95;;;9.60;;
29314;SDS011;16320;53.954;9.506;2022-09-13T05:35:49;28.80;;;7.82;;
29314;SDS011;16320;53.954;9.506;2022-09-13T05:38:54;32.28;;;7.03;;
29314;SDS011;16320;53.954;9.506;2022-09-13T05:42:19;32.97;;;5.65;;
29314;SDS011;16320;53.954;9.506;2022-09-13T05:45:24;25.40;;;5.68;;
29314;SDS011;16320;53.954;9.506;2022-09-13T05:48:29;32.67;;;5.15;;
29314;SDS011;16320;53.954;9.506;2022-09-13T05:51:34;29.80;;;5.70;;
29314;SDS011;16320;53.954;9.506;2022-09-13T05:54:38;38.85;;;5.38;;
29314;SDS011;16320;53.954;9.506;2022-09-13T05:57:43;31.52;;;7.05;;
29314;SDS011;16320;53.954;9.506;2022-09-13T06:00:54;36.63;;;7.53;;
29314;SDS011;16320;53.954;9.506;2022-09-13T06:03:59;30.77;;;7.35;;
29314;SDS011;16320;53.954;9.506;2022-09-13T06:07:05;29.95;;;6.72;;
29314;SDS011;16320;53.954;9.506;2022-09-13T06:10:10;29.27;;;6.57;;
29314;SDS011;16320;53.954;9.506;2022-09-13T06:13:15;23.35;;;8.73;;
29314;SDS011;16320;53.954;9.506;2022-09-13T06:16:19;39.80;;;7.72;;
29314;SDS011;16320;53.954;9.506;2022-09-13T06:19:25;22.77;;;6.60;;
29314;SDS011;16320;53.954;9.506;2022-09-13T06:22:29;29.58;;;7.60;;
29314;SDS011;16320;53.954;9.506;2022-09-13T06:25:36;26.65;;;7.20;;
29314;SDS011;16320;53.954;9.506;2022-09-13T06:28:40;30.20;;;5.93;;
29314;SDS011;16320;53.954;9.506;2022-09-13T06:31:45;26.17;;;7.30;;
29314;SDS011;16320;53.954;9.506;2022-09-13T06:34:50;23.15;;;6.05;;
29314;SDS011;16320;53.954;9.506;2022-09-13T06:37:54;29.45;;;7.68;;
29314;SDS011;16320;53.954;9.506;2022-09-13T06:41:06;25.25;;;8.00;;
29314;SDS011;16320;53.954;9.506;2022-09-13T06:44:14;22.70;;;5.85;;
29314;SDS011;16320;53.954;9.506;2022-09-13T06:47:18;31.52;;;4.88;;
29314;SDS011;16320;53.954;9.506;2022-09-13T06:50:22;28.67;;;5.35;;
29314;SDS011;16320;53.954;9.506;2022-09-13T06:53:27;31.85;;;6.55;;
29314;SDS011;16320;53.954;9.506;2022-09-13T06:56:33;25.80;;;5.60;;
29314;SDS011;16320;53.954;9.506;2022-09-13T06:59:39;21.60;;;5.07;;
29314;SDS011;16320;53.954;9.506;2022-09-13T07:02:44;28.00;;;5.43;;
29314;SDS011;16320;53.954;9.506;2022-09-13T07:05:54;29.40;;;5.25;;
29314;SDS011;16320;53.954;9.506;2022-09-13T07:08:59;11.55;;;3.90;;
29314;SDS011;16320;53.954;9.506;2022-09-13T07:12:09;15.40;;;4.05;;
29314;SDS011;16320;53.954;9.506;2022-09-13T07:15:13;18.00;;;4.63;;
29314;SDS011;16320;53.954;9.506;2022-09-13T07:18:18;14.85;;;2.92;;
29314;SDS011;16320;53.954;9.506;2022-09-13T07:21:23;19.98;;;3.38;;
29314;SDS011;16320;53.954;9.506;2022-09-13T07:24:29;19.02;;;3.65;;
29314;SDS011;16320;53.954;9.506;2022-09-13T07:27:33;13.38;;;2.60;;
29314;SDS011;16320;53.954;9.506;2022-09-13T07:30:37;12.48;;;2.15;;
29314;SDS011;16320;53.954;9.506;2022-09-13T07:33:42;14.63;;;2.08;;
29314;SDS011;16320;53.954;9.506;2022-09-13T07:36:48;16.13;;;2.28;;
29314;SDS011;16320;53.954;9.506;2022-09-13T07:39:53;12.73;;;3.05;;
29314;SDS011;16320;53.954;9.506;2022-09-13T07:42:57;15.80;;;2.00;;
29314;SDS011;16320;53.954;9.506;2022-09-13T07:46:02;9.60;;;1.48;;
29314;SDS011;16320;53.954;9.506;2022-09-13T07:49:13;10.02;;;1.60;;
29314;SDS011;16320;53.954;9.506;2022-09-13T07:52:20;13.88;;;1.30;;
29314;SDS011;16320;53.954;9.506;2022-09-13T07:55:24;6.47;;;1.25;;
29314;SDS011;16320;53.954;9.506;2022-09-13T07:58:29;8.43;;;1.33;;
29314;SDS011;16320;53.954;9.506;2022-09-13T08:01:37;9.23;;;1.08;;
29314;SDS011;16320;53.954;9.506;2022-09-13T08:04:52;5.68;;;1.15;;
29314;SDS011;16320;53.954;9.506;2022-09-13T08:07:56;10.20;;;1.00;;
29314;SDS011;16320;53.954;9.506;2022-09-13T08:11:01;11.48;;;1.33;;
29314;SDS011;16320;53.954;9.506;2022-09-13T08:14:09;9.98;;;1.38;;
29314;SDS011;16320;53.954;9.506;2022-09-13T08:17:16;9.70;;;1.33;;
29314;SDS011;16320;53.954;9.506;2022-09-13T08:20:21;9.23;;;1.30;;
29314;SDS011;16320;53.954;9.506;2022-09-13T08:23:26;9.48;;;1.15;;
29314;SDS011;16320;53.954;9.506;2022-09-13T08:26:31;11.02;;;1.48;;
29314;SDS011;16320;53.954;9.506;2022-09-13T08:29:38;13.25;;;1.30;;
29314;SDS011;16320;53.954;9.506;2022-09-13T08:32:42;10.40;;;1.52;;
29314;SDS011;16320;53.954;9.506;2022-09-13T08:35:50;7.85;;;1.10;;
29314;SDS011;16320;53.954;9.506;2022-09-13T08:38:59;6.57;;;1.15;;
29314;SDS011;16320;53.954;9.506;2022-09-13T08:45:26;9.18;;;1.70;;
29314;SDS011;16320;53.954;9.506;2022-09-13T08:48:32;11.20;;;1.13;;
29314;SDS011;16320;53.954;9.506;2022-09-13T08:51:49;11.75;;;1.45;;
29314;SDS011;16320;53.954;9.506;2022-09-13T08:54:58;10.73;;;1.40;;
29314;SDS011;16320;53.954;9.506;2022-09-13T09:01:59;7.03;;;1.48;;
29314;SDS011;16320;53.954;9.506;2022-09-13T09:05:46;11.27;;;1.73;;
29314;SDS011;16320;53.954;9.506;2022-09-13T09:08:56;13.60;;;1.33;;
29314;SDS011;16320;53.954;9.506;2022-09-13T09:12:32;13.95;;;1.42;;
29314;SDS011;16320;53.954;9.506;2022-09-13T09:15:54;12.48;;;1.67;;
29314;SDS011;16320;53.954;9.506;2022-09-13T09:19:39;5.93;;;0.98;;
29314;SDS011;16320;53.954;9.506;2022-09-13T09:22:49;8.00;;;1.13;;
29314;SDS011;16320;53.954;9.506;2022-09-13T09:25:57;13.25;;;1.83;;
29314;SDS011;16320;53.954;9.506;2022-09-13T09:29:23;8.93;;;1.20;;
29314;SDS011;16320;53.954;9.506;2022-09-13T09:36:10;6.00;;;1.02;;
29314;SDS011;16320;53.954;9.506;2022-09-13T09:39:36;16.45;;;2.05;;
29314;SDS011;16320;53.954;9.506;2022-09-13T09:42:44;5.85;;;1.00;;
29314;SDS011;16320;53.954;9.506;2022-09-13T09:45:51;6.95;;;1.13;;
29314;SDS011;16320;53.954;9.506;2022-09-13T09:53:07;9.77;;;1.20;;
29314;SDS011;16320;53.954;9.506;2022-09-13T09:56:28;9.13;;;1.25;;
29314;SDS011;16320;53.954;9.506;2022-09-13T09:59:36;11.45;;;2.33;;
29314;SDS011;16320;53.954;9.506;2022-09-13T10:05:48;8.95;;;1.25;;
29314;SDS011;16320;53.954;9.506;2022-09-13T10:08:54;9.60;;;1.52;;
29314;SDS011;16320;53.954;9.506;2022-09-13T10:15:13;15.25;;;1.27;;
29314;SDS011;16320;53.954;9.506;2022-09-13T10:18:25;11.70;;;1.17;;
29314;SDS011;16320;53.954;9.506;2022-09-13T10:22:01;10.73;;;1.02;;
29314;SDS011;16320;53.954;9.506;2022-09-13T10:25:21;12.30;;;1.42;;
29314;SDS011;16320;53.954;9.506;2022-09-13T10:28:32;9.00;;;1.20;;
29314;SDS011;16320;53.954;9.506;2022-09-13T10:32:07;15.88;;;1.27;;
29314;SDS011;16320;53.954;9.506;2022-09-13T10:35:15;6.65;;;1.30;;
29314;SDS011;16320;53.954;9.506;2022-09-13T10:38:27;8.07;;;1.20;;
29314;SDS011;16320;53.954;9.506;2022-09-13T10:41:36;7.07;;;1.17;;
29314;SDS011;16320;53.954;9.506;2022-09-13T10:44:45;8.30;;;1.38;;
29314;SDS011;16320;53.954;9.506;2022-09-13T10:48:11;9.00;;;1.70;;
29314;SDS011;16320;53.954;9.506;2022-09-13T10:51:42;5.45;;;1.00;;
29314;SDS011;16320;53.954;9.506;2022-09-13T10:54:45;8.20;;;1.13;;
29314;SDS011;16320;53.954;9.506;2022-09-13T11:04:49;5.43;;;0.95;;
29314;SDS011;16320;53.954;9.506;2022-09-13T11:11:41;7.35;;;0.70;;
29314;SDS011;16320;53.954;9.506;2022-09-13T11:18:37;7.10;;;1.50;;
29314;SDS011;16320;53.954;9.506;2022-09-13T11:25:35;5.35;;;0.70;;
29314;SDS011;16320;53.954;9.506;2022-09-13T11:51:15;6.85;;;1.10;;
29314;SDS011;16320;53.954;9.506;2022-09-13T11:57:58;7.30;;;1.25;;
29314;SDS011;16320;53.954;9.506;2022-09-13T12:01:09;9.60;;;1.20;;
29314;SDS011;16320;53.954;9.506;2022-09-13T12:04:21;6.85;;;0.82;;
29314;SDS011;16320;53.954;9.506;2022-09-13T12:08:03;10.20;;;1.08;;
29314;SDS011;16320;53.954;9.506;2022-09-13T12:11:21;5.45;;;1.13;;
29314;SDS011;16320;53.954;9.506;2022-09-13T12:14:53;7.43;;;1.17;;
29314;SDS011;16320;53.954;9.506;2022-09-13T12:18:18;7.72;;;1.00;;
29314;SDS011;16320;53.954;9.506;2022-09-13T12:21:35;8.90;;;1.00;;
29314;SDS011;16320;53.954;9.506;2022-09-13T12:28:09;9.05;;;1.13;;
29314;SDS011;16320;53.954;9.506;2022-09-13T12:31:37;10.10;;;1.27;;
29314;SDS011;16320;53.954;9.506;2022-09-13T12:34:59;9.15;;;1.17;;
29314;SDS011;16320;53.954;9.506;2022-09-13T13:01:09;11.23;;;1.40;;
29314;SDS011;16320;53.954;9.506;2022-09-13T13:04:31;14.30;;;1.50;;
29314;SDS011;16320;53.954;9.506;2022-09-13T13:07:38;9.93;;;1.65;;
29314;SDS011;16320;53.954;9.506;2022-09-13T13:11:03;11.13;;;1.45;;
29314;SDS011;16320;53.954;9.506;2022-09-13T13:14:27;14.27;;;1.92;;
29314;SDS011;16320;53.954;9.506;2022-09-13T13:27:37;6.70;;;1.00;;
29314;SDS011;16320;53.954;9.506;2022-09-13T13:30:51;8.70;;;1.50;;
29314;SDS011;16320;53.954;9.506;2022-09-13T13:40:24;5.30;;;0.90;;
29314;SDS011;16320;53.954;9.506;2022-09-13T13:43:32;12.68;;;1.17;;
29314;SDS011;16320;53.954;9.506;2022-09-13T13:46:38;11.02;;;1.67;;
29314;SDS011;16320;53.954;9.506;2022-09-13T13:49:50;10.98;;;1.63;;
29314;SDS011;16320;53.954;9.506;2022-09-13T13:53:18;3.10;;;0.75;;
29314;SDS011;16320;53.954;9.506;2022-09-13T13:56:45;13.00;;;1.00;;
29314;SDS011;16320;53.954;9.506;2022-09-13T13:59:54;10.93;;;1.08;;
29314;SDS011;16320;53.954;9.506;2022-09-13T14:03:15;14.85;;;1.60;;
29314;SDS011;16320;53.954;9.506;2022-09-13T14:10:27;11.95;;;1.33;;
29314;SDS011;16320;53.954;9.506;2022-09-13T14:21:24;13.52;;;1.98;;
29314;SDS011;16320;53.954;9.506;2022-09-13T14:24:36;11.25;;;1.35;;
29314;SDS011;16320;53.954;9.506;2022-09-13T14:27:46;9.60;;;1.67;;
29314;SDS011;16320;53.954;9.506;2022-09-13T14:30:52;10.50;;;1.60;;
29314;SDS011;16320;53.954;9.506;2022-09-13T14:34:00;11.05;;;1.02;;
29314;SDS011;16320;53.954;9.506;2022-09-13T14:37:14;7.63;;;0.93;;
29314;SDS011;16320;53.954;9.506;2022-09-13T14:40:25;10.43;;;1.00;;
29314;SDS011;16320;53.954;9.506;2022-09-13T14:43:31;10.25;;;1.27;;
29314;SDS011;16320;53.954;9.506;2022-09-13T14:46:36;6.18;;;1.00;;
29314;SDS011;16320;53.954;9.506;2022-09-13T14:49:45;6.75;;;0.98;;
29314;SDS011;16320;53.954;9.506;2022-09-13T14:53:01;8.98;;;1.30;;
29314;SDS011;16320;53.954;9.506;2022-09-13T14:56:15;10.82;;;1.30;;
29314;SDS011;16320;53.954;9.506;2022-09-13T14:59:43;12.43;;;1.23;;
29314;SDS011;16320;53.954;9.506;2022-09-13T15:02:56;13.18;;;1.38;;
29314;SDS011;16320;53.954;9.506;2022-09-13T15:06:17;10.50;;;1.25;;
29314;SDS011;16320;53.954;9.506;2022-09-13T15:13:30;8.25;;;0.90;;
29314;SDS011;16320;53.954;9.506;2022-09-13T15:16:45;7.05;;;1.25;;
29314;SDS011;16320;53.954;9.506;2022-09-13T15:20:02;10.80;;;1.30;;
29314;SDS011;16320;53.954;9.506;2022-09-13T15:26:37;3.22;;;0.68;;
29314;SDS011;16320;53.954;9.506;2022-09-13T15:29:47;8.85;;;1.15;;
29314;SDS011;16320;53.954;9.506;2022-09-13T15:39:22;9.02;;;0.85;;
29314;SDS011;16320;53.954;9.506;2022-09-13T15:42:26;9.18;;;1.23;;
29314;SDS011;16320;53.954;9.506;2022-09-13T15:45:30;8.23;;;1.73;;
29314;SDS011;16320;53.954;9.506;2022-09-13T15:48:35;5.82;;;0.80;;
29314;SDS011;16320;53.954;9.506;2022-09-13T15:51:40;3.05;;;0.80;;
29314;SDS011;16320;53.954;9.506;2022-09-13T15:54:47;6.57;;;0.80;;
29314;SDS011;16320;53.954;9.506;2022-09-13T15:57:53;7.22;;;1.05;;
29314;SDS011;16320;53.954;9.506;2022-09-13T16:00:58;5.15;;;0.75;;
29314;SDS011;16320;53.954;9.506;2022-09-13T16:04:03;12.65;;;0.90;;
29314;SDS011;16320;53.954;9.506;2022-09-13T16:07:09;3.92;;;1.15;;
29314;SDS011;16320;53.954;9.506;2022-09-13T16:13:23;5.75;;;0.57;;
29314;SDS011;16320;53.954;9.506;2022-09-13T16:16:27;6.05;;;0.88;;
29314;SDS011;16320;53.954;9.506;2022-09-13T16:19:32;4.25;;;0.50;;
29314;SDS011;16320;53.954;9.506;2022-09-13T16:22:37;3.72;;;1.13;;
29314;SDS011;16320;53.954;9.506;2022-09-13T16:25:42;6.45;;;1.30;;
29314;SDS011;16320;53.954;9.506;2022-09-13T16:28:47;4.57;;;1.00;;
29314;SDS011;16320;53.954;9.506;2022-09-13T16:31:51;3.13;;;0.68;;
29314;SDS011;16320;53.954;9.506;2022-09-13T16:34:55;6.43;;;1.02;;
29314;SDS011;16320;53.954;9.506;2022-09-13T16:38:00;3.38;;;0.70;;
29314;SDS011;16320;53.954;9.506;2022-09-13T16:41:05;7.05;;;0.50;;
29314;SDS011;16320;53.954;9.506;2022-09-13T16:44:10;6.38;;;1.10;;
29314;SDS011;16320;53.954;9.506;2022-09-13T16:47:16;3.35;;;0.52;;
29314;SDS011;16320;53.954;9.506;2022-09-13T16:50:21;5.97;;;0.85;;
29314;SDS011;16320;53.954;9.506;2022-09-13T16:53:26;4.07;;;0.70;;
29314;SDS011;16320;53.954;9.506;2022-09-13T16:56:34;10.45;;;1.52;;
29314;SDS011;16320;53.954;9.506;2022-09-13T16:59:38;8.15;;;0.55;;
29314;SDS011;16320;53.954;9.506;2022-09-13T17:02:46;9.13;;;0.60;;
29314;SDS011;16320;53.954;9.506;2022-09-13T17:05:58;4.07;;;0.57;;
29314;SDS011;16320;53.954;9.506;2022-09-13T17:09:04;2.28;;;0.55;;
29314;SDS011;16320;53.954;9.506;2022-09-13T17:12:11;5.18;;;0.73;;
29314;SDS011;16320;53.954;9.506;2022-09-13T17:15:16;4.13;;;0.65;;
29314;SDS011;16320;53.954;9.506;2022-09-13T17:18:21;6.03;;;0.80;;
29314;SDS011;16320;53.954;9.506;2022-09-13T17:21:26;13.80;;;0.80;;
29314;SDS011;16320;53.954;9.506;2022-09-13T17:24:31;3.95;;;0.80;;
29314;SDS011;16320;53.954;9.506;2022-09-13T17:27:37;6.00;;;1.35;;
29314;SDS011;16320;53.954;9.506;2022-09-13T17:33:47;8.77;;;0.90;;
29314;SDS011;16320;53.954;9.506;2022-09-13T17:36:53;3.83;;;0.82;;
29314;SDS011;16320;53.954;9.506;2022-09-13T17:39:57;5.05;;;0.90;;
29314;SDS011;16320;53.954;9.506;2022-09-13T17:43:02;5.20;;;0.98;;
29314;SDS011;16320;53.954;9.506;2022-09-13T17:46:09;6.78;;;0.80;;
29314;SDS011;16320;53.954;9.506;2022-09-13T17:49:16;5.22;;;1.05;;
29314;SDS011;16320;53.954;9.506;2022-09-13T17:52:21;5.10;;;0.77;;
29314;SDS011;16320;53.954;9.506;2022-09-13T17:55:25;4.40;;;0.70;;
29314;SDS011;16320;53.954;9.506;2022-09-13T17:58:30;9.95;;;1.05;;
29314;SDS011;16320;53.954;9.506;2022-09-13T18:01:35;5.22;;;0.52;;
29314;SDS011;16320;53.954;9.506;2022-09-13T18:04:42;4.00;;;0.88;;
29314;SDS011;16320;53.954;9.506;2022-09-13T18:07:47;8.15;;;1.35;;
29314;SDS011;16320;53.954;9.506;2022-09-13T18:10:52;7.60;;;1.00;;
29314;SDS011;16320;53.954;9.506;2022-09-13T18:14:16;10.77;;;0.97;;
29314;SDS011;16320;53.954;9.506;2022-09-13T18:17:22;6.13;;;0.85;;
29314;SDS011;16320;53.954;9.506;2022-09-13T18:20:27;7.25;;;1.10;;
29314;SDS011;16320;53.954;9.506;2022-09-13T18:23:32;3.70;;;0.70;;
29314;SDS011;16320;53.954;9.506;2022-09-13T18:26:38;8.32;;;0.75;;
29314;SDS011;16320;53.954;9.506;2022-09-13T18:29:42;9.57;;;1.17;;
29314;SDS011;16320;53.954;9.506;2022-09-13T18:32:48;6.20;;;0.73;;
29314;SDS011;16320;53.954;9.506;2022-09-13T18:36:00;6.97;;;0.90;;
29314;SDS011;16320;53.954;9.506;2022-09-13T18:39:19;4.15;;;0.52;;
29314;SDS011;16320;53.954;9.506;2022-09-13T18:42:25;3.47;;;0.60;;
29314;SDS011;16320;53.954;9.506;2022-09-13T18:45:35;5.18;;;1.15;;
29314;SDS011;16320;53.954;9.506;2022-09-13T18:48:44;6.78;;;0.88;;
29314;SDS011;16320;53.954;9.506;2022-09-13T18:51:50;7.88;;;0.88;;
29314;SDS011;16320;53.954;9.506;2022-09-13T18:54:55;10.48;;;0.90;;
29314;SDS011;16320;53.954;9.506;2022-09-13T18:58:00;7.50;;;0.90;;
29314;SDS011;16320;53.954;9.506;2022-09-13T19:04:18;8.98;;;1.27;;
29314;SDS011;16320;53.954;9.506;2022-09-13T19:07:23;7.32;;;1.40;;
29314;SDS011;16320;53.954;9.506;2022-09-13T19:10:28;8.43;;;1.10;;
29314;SDS011;16320;53.954;9.506;2022-09-13T19:13:35;5.65;;;0.70;;
29314;SDS011;16320;53.954;9.506;2022-09-13T19:16:40;7.00;;;1.00;;
29314;SDS011;16320;53.954;9.506;2022-09-13T19:19:44;4.00;;;0.90;;
29314;SDS011;16320;53.954;9.506;2022-09-13T19:22:50;9.57;;;1.58;;
29314;SDS011;16320;53.954;9.506;2022-09-13T19:25:55;5.28;;;0.68;;
29314;SDS011;16320;53.954;9.506;2022-09-13T19:29:07;4.38;;;1.00;;
29314;SDS011;16320;53.954;9.506;2022-09-13T19:32:16;8.77;;;0.95;;
29314;SDS011;16320;53.954;9.506;2022-09-13T19:35:20;5.10;;;0.70;;
29314;SDS011;16320;53.954;9.506;2022-09-13T19:38:26;5.43;;;0.90;;
29314;SDS011;16320;53.954;9.506;2022-09-13T19:41:35;4.93;;;0.63;;
29314;SDS011;16320;53.954;9.506;2022-09-13T19:44:41;7.97;;;1.02;;
29314;SDS011;16320;53.954;9.506;2022-09-13T19:47:45;8.70;;;1.23;;
29314;SDS011;16320;53.954;9.506;2022-09-13T19:51:11;6.47;;;0.77;;
29314;SDS011;16320;53.954;9.506;2022-09-13T19:54:19;7.97;;;0.95;;
29314;SDS011;16320;53.954;9.506;2022-09-13T19:57:23;9.30;;;0.80;;
29314;SDS011;16320;53.954;9.506;2022-09-13T20:00:28;6.13;;;1.10;;
29314;SDS011;16320;53.954;9.506;2022-09-13T20:03:36;6.55;;;1.20;;
29314;SDS011;16320;53.954;9.506;2022-09-13T20:06:42;11.50;;;2.92;;
29314;SDS011;16320;53.954;9.506;2022-09-13T20:09:49;7.28;;;1.00;;
29314;SDS011;16320;53.954;9.506;2022-09-13T20:12:54;6.70;;;1.10;;
29314;SDS011;16320;53.954;9.506;2022-09-13T20:15:59;6.80;;;0.98;;
29314;SDS011;16320;53.954;9.506;2022-09-13T20:19:05;11.18;;;1.73;;
29314;SDS011;16320;53.954;9.506;2022-09-13T20:22:30;8.93;;;1.67;;
29314;SDS011;16320;53.954;9.506;2022-09-13T20:25:35;11.98;;;2.33;;
29314;SDS011;16320;53.954;9.506;2022-09-13T20:28:43;8.32;;;1.10;;
29314;SDS011;16320;53.954;9.506;2022-09-13T20:31:48;17.75;;;2.17;;
29314;SDS011;16320;53.954;9.506;2022-09-13T20:34:52;20.25;;;1.90;;
29314;SDS011;16320;53.954;9.506;2022-09-13T20:37:58;12.63;;;1.85;;
29314;SDS011;16320;53.954;9.506;2022-09-13T20:41:12;11.98;;;2.28;;
29314;SDS011;16320;53.954;9.506;2022-09-13T20:44:17;10.65;;;1.77;;
29314;SDS011;16320;53.954;9.506;2022-09-13T20:47:21;12.43;;;2.22;;
29314;SDS011;16320;53.954;9.506;2022-09-13T20:50:25;17.35;;;2.08;;
29314;SDS011;16320;53.954;9.506;2022-09-13T20:53:31;11.52;;;1.63;;
29314;SDS011;16320;53.954;9.506;2022-09-13T20:56:36;15.05;;;1.65;;
29314;SDS011;16320;53.954;9.506;2022-09-13T20:59:40;13.30;;;1.80;;
29314;SDS011;16320;53.954;9.506;2022-09-13T21:02:46;11.43;;;1.45;;
29314;SDS011;16320;53.954;9.506;2022-09-13T21:05:51;13.73;;;2.25;;
29314;SDS011;16320;53.954;9.506;2022-09-13T21:08:56;13.90;;;1.55;;
29314;SDS011;16320;53.954;9.506;2022-09-13T21:12:03;14.55;;;1.85;;
29314;SDS011;16320;53.954;9.506;2022-09-13T21:15:11;18.13;;;2.47;;
29314;SDS011;16320;53.954;9.506;2022-09-13T21:18:15;14.63;;;2.22;;
29314;SDS011;16320;53.954;9.506;2022-09-13T21:21:24;14.57;;;1.63;;
29314;SDS011;16320;53.954;9.506;2022-09-13T21:24:32;10.63;;;1.83;;
29314;SDS011;16320;53.954;9.506;2022-09-13T21:27:36;11.52;;;1.80;;
29314;SDS011;16320;53.954;9.506;2022-09-13T21:30:41;10.98;;;1.65;;
29314;SDS011;16320;53.954;9.506;2022-09-13T21:33:46;13.68;;;1.55;;
29314;SDS011;16320;53.954;9.506;2022-09-13T21:36:51;11.63;;;1.95;;
29314;SDS011;16320;53.954;9.506;2022-09-13T21:39:56;12.63;;;2.22;;
29314;SDS011;16320;53.954;9.506;2022-09-13T21:43:01;10.60;;;2.30;;
29314;SDS011;16320;53.954;9.506;2022-09-13T21:46:13;10.95;;;1.70;;
29314;SDS011;16320;53.954;9.506;2022-09-13T21:52:25;10.95;;;1.95;;